Time;durP1;ratioP1;P1;durP2;ratioP2;P2;SDS_P1;SDS_P2;PMS_P1;PMS_P2;Temp;Humidity;BMP_temperature;BMP_pressure;BME280_temperature;BME280_humidity;BME280_pressure;Samples;Min_cycle;Max_cycle;Signal;HPM_P1;HPM_P2
2023/09/03 00:00:00;;;;;;;3.83;0.90;;;16.50;65.30;;;;;;5075071;28;20016;-80
2023/09/03 00:02:27;;;;;;;10.35;1.40;;;16.50;62.90;;;;;;5075370;28;20051;-81
2023/09/03 00:04:57;;;;;;;2.08;0.98;;;16.70;62.80;;;;;;5074262;28;20056;-79
2023/09/03 00:07:24;;;;;;;2.25;0.82;;;16.70;62.20;;;;;;5075138;28;20020;-78
2023/09/03 00:09:51;;;;;;;2.03;0.98;;;16.90;62.70;;;;;;5076697;28;20051;-76
2023/09/03 00:12:22;;;;;;;4.25;1.02;;;17.10;62.70;;;;;;5087681;28;20036;-76
2023/09/03 00:14:51;;;;;;;1.90;0.73;;;17.30;61.80;;;;;;5090358;28;20027;-78
2023/09/03 00:17:21;;;;;;;3.95;0.90;;;17.40;61.80;;;;;;5090945;28;20054;-77
2023/09/03 00:19:50;;;;;;;2.67;1.15;;;17.70;61.70;;;;;;5089597;28;20107;-79
2023/09/03 00:22:17;;;;;;;3.42;0.98;;;17.90;61.80;;;;;;5090236;28;20017;-75
2023/09/03 00:24:46;;;;;;;3.80;0.90;;;18.00;62.30;;;;;;5090082;28;20032;-77
2023/09/03 00:27:13;;;;;;;3.60;0.88;;;18.20;62.20;;;;;;5090736;28;20048;-79
2023/09/03 00:29:45;;;;;;;3.50;0.80;;;18.20;61.70;;;;;;5090301;28;20032;-78
2023/09/03 00:32:12;;;;;;;2.50;0.75;;;18.30;60.40;;;;;;5090473;28;20509;-76
2023/09/03 00:34:40;;;;;;;2.83;0.80;;;18.30;60.00;;;;;;5090857;28;20566;-75
2023/09/03 00:37:07;;;;;;;3.75;0.57;;;18.30;59.50;;;;;;5087098;28;20040;-76
2023/09/03 00:39:35;;;;;;;1.05;0.60;;;18.30;59.80;;;;;;5087859;28;20070;-75
2023/09/03 00:42:02;;;;;;;2.50;0.75;;;18.40;59.60;;;;;;5088557;28;20482;-79
2023/09/03 00:44:30;;;;;;;0.73;0.40;;;18.50;59.90;;;;;;5089124;28;20021;-77
2023/09/03 00:46:58;;;;;;;1.50;0.52;;;18.50;58.70;;;;;;5079526;28;20016;-76
2023/09/03 00:49:26;;;;;;;4.20;0.50;;;18.50;59.10;;;;;;5074801;28;20027;-75
2023/09/03 00:51:55;;;;;;;0.55;0.40;;;18.50;56.70;;;;;;5073501;28;20040;-80
2023/09/03 00:54:25;;;;;;;0.90;0.40;;;18.40;57.40;;;;;;5074118;28;20559;-79
2023/09/03 00:56:54;;;;;;;1.27;0.50;;;18.40;57.30;;;;;;5074177;28;20025;-83
2023/09/03 00:59:24;;;;;;;3.47;0.77;;;18.40;58.00;;;;;;5071867;28;20028;-82
2023/09/03 01:01:53;;;;;;;1.60;0.60;;;18.40;58.60;;;;;;5074009;28;20059;-81
2023/09/03 01:04:20;;;;;;;2.97;0.80;;;18.50;59.40;;;;;;5073891;28;20082;-82
2023/09/03 01:06:52;;;;;;;2.25;0.70;;;18.80;59.50;;;;;;5073800;28;20016;-84
2023/09/03 01:09:20;;;;;;;4.20;0.90;;;18.90;59.10;;;;;;5072388;28;20689;-81
2023/09/03 01:12:05;;;;;;;1.85;0.70;;;19.00;58.30;;;;;;5074594;28;20028;-83
2023/09/03 01:15:00;;;;;;;5.60;1.08;;;19.10;58.70;;;;;;5074624;28;20020;-78
2023/09/03 01:18:00;;;;;;;1.90;0.80;;;19.20;58.20;;;;;;5090638;28;20032;-82
2023/09/03 01:20:37;;;;;;;1.33;0.65;;;19.30;58.60;;;;;;5077118;28;20044;-83
2023/09/03 01:23:18;;;;;;;4.25;1.20;;;19.50;58.90;;;;;;5080002;28;20020;-82
2023/09/03 01:26:07;;;;;;;2.55;0.90;;;19.70;59.10;;;;;;5075546;28;20092;-80
2023/09/03 01:28:39;;;;;;;2.58;0.90;;;19.80;58.90;;;;;;5094165;28;20111;-79
2023/09/03 01:31:20;;;;;;;7.95;1.00;;;19.90;58.50;;;;;;5080020;28;20036;-80
2023/09/03 01:33:52;;;;;;;2.55;0.80;;;20.00;57.10;;;;;;5073215;28;20035;-79
2023/09/03 01:36:19;;;;;;;1.75;1.05;;;20.10;57.40;;;;;;5073475;28;20029;-78
2023/09/03 01:38:47;;;;;;;3.92;1.33;;;20.10;57.00;;;;;;5071278;28;20418;-79
2023/09/03 01:41:14;;;;;;;4.50;0.90;;;20.00;56.40;;;;;;5062057;28;20364;-83
2023/09/03 01:43:41;;;;;;;1.98;0.70;;;19.90;55.40;;;;;;5070785;28;20549;-78
2023/09/03 01:46:13;;;;;;;4.38;0.65;;;19.80;55.10;;;;;;5070208;28;20012;-82
2023/09/03 01:49:20;;;;;;;4.82;0.88;;;19.60;55.50;;;;;;5071875;28;20060;-79
2023/09/03 01:52:00;;;;;;;4.22;0.80;;;19.50;55.90;;;;;;5064566;28;20055;-82
2023/09/03 01:54:38;;;;;;;3.40;0.60;;;19.40;55.70;;;;;;5064050;28;20446;-80
2023/09/03 01:57:16;;;;;;;3.35;1.20;;;19.20;55.60;;;;;;5065347;28;20032;-76
2023/09/03 01:59:50;;;;;;;1.67;0.90;;;19.10;56.10;;;;;;5072307;28;20103;-82
2023/09/03 02:02:18;;;;;;;2.88;0.70;;;19.00;56.30;;;;;;5071386;28;20477;-77
2023/09/03 02:04:46;;;;;;;1.73;0.90;;;18.90;56.50;;;;;;5073999;28;20024;-79
2023/09/03 02:07:13;;;;;;;2.33;0.93;;;18.80;56.70;;;;;;5073040;28;20028;-83
2023/09/03 02:09:40;;;;;;;5.55;1.25;;;18.80;57.00;;;;;;5071959;28;20529;-80
2023/09/03 02:12:08;;;;;;;2.92;1.00;;;18.80;57.00;;;;;;5073131;28;20112;-80
2023/09/03 02:14:37;;;;;;;2.72;1.00;;;18.70;57.20;;;;;;5073503;28;20741;-82
2023/09/03 02:17:05;;;;;;;2.03;1.00;;;18.70;57.40;;;;;;5073835;28;20039;-78
2023/09/03 02:19:32;;;;;;;3.25;1.05;;;18.60;58.00;;;;;;5082872;28;20023;-76
2023/09/03 02:21:59;;;;;;;3.33;1.00;;;18.70;58.10;;;;;;5093161;28;20021;-78
2023/09/03 02:24:27;;;;;;;2.95;1.10;;;18.70;58.50;;;;;;5091457;28;20013;-76
2023/09/03 02:27:08;;;;;;;1.77;1.10;;;18.70;58.90;;;;;;5082452;28;20413;-82
2023/09/03 02:29:50;;;;;;;6.13;1.67;;;18.70;59.30;;;;;;5073372;28;20104;-81
2023/09/03 02:32:17;;;;;;;4.13;1.30;;;18.70;59.70;;;;;;5073050;28;20484;-83
2023/09/03 02:34:45;;;;;;;4.80;1.40;;;18.70;60.00;;;;;;5071464;28;20029;-83
2023/09/03 02:37:12;;;;;;;6.78;1.70;;;18.70;60.30;;;;;;5072728;28;20478;-83
2023/09/03 02:39:41;;;;;;;3.22;1.25;;;18.70;60.40;;;;;;5073051;28;20016;-83
2023/09/03 02:42:08;;;;;;;5.32;1.10;;;18.70;60.60;;;;;;5072883;28;20027;-80
2023/09/03 02:44:35;;;;;;;2.90;0.85;;;18.70;60.90;;;;;;5072853;28;20533;-80
2023/09/03 02:47:03;;;;;;;4.72;0.98;;;18.70;61.00;;;;;;5072233;28;20542;-84
2023/09/03 02:49:30;;;;;;;3.30;0.95;;;18.60;61.20;;;;;;5072680;28;20081;-82
2023/09/03 02:51:59;;;;;;;4.40;1.23;;;18.60;61.50;;;;;;5072453;28;20119;-81
2023/09/03 02:54:26;;;;;;;4.68;1.13;;;18.60;61.60;;;;;;5072863;28;20021;-78
2023/09/03 02:56:54;;;;;;;2.88;0.90;;;18.70;61.60;;;;;;5072944;28;20541;-80
2023/09/03 02:59:21;;;;;;;5.88;0.90;;;18.60;61.60;;;;;;5072837;28;20073;-84
2023/09/03 03:01:48;;;;;;;2.53;0.80;;;18.60;61.60;;;;;;5072599;28;20025;-82
2023/09/03 03:04:16;;;;;;;3.70;1.10;;;18.60;61.70;;;;;;5072534;28;20107;-82
2023/09/03 03:06:43;;;;;;;5.63;0.98;;;18.60;61.60;;;;;;5072086;28;20033;-82
2023/09/03 03:09:10;;;;;;;3.63;0.88;;;18.60;61.60;;;;;;5072444;28;20357;-81
2023/09/03 03:11:38;;;;;;;2.65;0.90;;;18.70;61.70;;;;;;5072446;28;20116;-80
2023/09/03 03:14:05;;;;;;;5.32;0.80;;;18.80;61.30;;;;;;5072728;28;20028;-82
2023/09/03 03:16:33;;;;;;;2.78;0.90;;;18.80;61.10;;;;;;5076377;28;20056;-85
2023/09/03 03:19:02;;;;;;;2.92;0.88;;;19.00;60.70;;;;;;5076068;28;20383;-81
2023/09/03 03:21:29;;;;;;;3.85;0.80;;;19.00;60.50;;;;;;5075965;28;20033;-81
2023/09/03 03:23:57;;;;;;;5.55;0.80;;;19.10;59.80;;;;;;5076395;28;20055;-80
2023/09/03 03:26:26;;;;;;;1.45;0.57;;;19.10;59.60;;;;;;5075920;28;20049;-80
2023/09/03 03:28:55;;;;;;;4.35;0.73;;;19.10;59.80;;;;;;5076123;28;20458;-76
2023/09/03 03:31:23;;;;;;;2.90;0.80;;;19.20;59.80;;;;;;5076405;28;20033;-84
2023/09/03 03:33:51;;;;;;;2.45;0.60;;;19.20;59.60;;;;;;5076159;28;20374;-77
2023/09/03 03:36:21;;;;;;;1.83;0.75;;;19.30;59.20;;;;;;5075877;28;20029;-83
2023/09/03 03:38:50;;;;;;;3.30;0.60;;;19.30;58.70;;;;;;5076830;28;20021;-85
2023/09/03 03:41:19;;;;;;;1.08;0.57;;;19.30;58.80;;;;;;5074937;28;20476;-75
2023/09/03 03:43:49;;;;;;;1.98;0.65;;;19.40;58.60;;;;;;5076483;28;20024;-78
2023/09/03 03:46:18;;;;;;;6.38;0.70;;;19.40;57.90;;;;;;5075872;28;20033;-78
2023/09/03 03:48:49;;;;;;;1.80;0.65;;;19.40;57.60;;;;;;5075764;28;20039;-81
2023/09/03 03:51:17;;;;;;;4.22;0.77;;;19.30;57.40;;;;;;5075390;28;20037;-79
2023/09/03 03:53:44;;;;;;;3.10;0.70;;;19.30;57.50;;;;;;5075651;28;20025;-78
2023/09/03 03:56:12;;;;;;;2.28;0.90;;;19.40;58.00;;;;;;5075713;28;20037;-78
2023/09/03 03:58:41;;;;;;;2.47;0.60;;;19.50;57.80;;;;;;5075711;28;20017;-79
2023/09/03 04:01:26;;;;;;;1.13;0.50;;;19.50;57.70;;;;;;5075172;28;20109;-77
2023/09/03 04:03:55;;;;;;;1.77;0.70;;;19.50;57.20;;;;;;5076663;28;20032;-78
2023/09/03 04:06:23;;;;;;;0.98;0.40;;;19.50;57.30;;;;;;5076380;28;20426;-78
2023/09/03 04:08:55;;;;;;;3.75;0.75;;;19.60;57.50;;;;;;5076508;28;20051;-76
2023/09/03 04:11:24;;;;;;;2.10;0.70;;;19.70;57.40;;;;;;5075902;28;20037;-76
2023/09/03 04:13:51;;;;;;;1.73;0.60;;;19.70;57.10;;;;;;5076251;28;20104;-77
2023/09/03 04:16:24;;;;;;;4.20;0.70;;;19.80;57.40;;;;;;5075698;28;20033;-78
2023/09/03 04:18:52;;;;;;;6.40;0.68;;;19.80;57.30;;;;;;5075644;28;20048;-77
2023/09/03 04:21:19;;;;;;;2.53;0.95;;;19.90;57.10;;;;;;5073666;28;20045;-78
2023/09/03 04:23:46;;;;;;;2.67;0.70;;;20.00;57.10;;;;;;5075699;28;20435;-79
2023/09/03 04:26:14;;;;;;;2.15;0.60;;;19.90;57.10;;;;;;5075411;28;20055;-77
2023/09/03 04:28:44;;;;;;;2.70;0.90;;;19.90;56.80;;;;;;5075512;28;20036;-76
2023/09/03 04:31:14;;;;;;;1.58;0.70;;;19.90;56.50;;;;;;5075016;28;20040;-76
2023/09/03 04:33:41;;;;;;;3.90;0.80;;;19.90;57.10;;;;;;5075771;28;20016;-79
2023/09/03 04:36:10;;;;;;;1.77;0.70;;;20.00;56.80;;;;;;5075381;28;20036;-77
2023/09/03 04:38:38;;;;;;;1.50;0.57;;;19.90;56.60;;;;;;5075968;28;20042;-76
2023/09/03 04:41:06;;;;;;;2.10;0.80;;;20.00;56.80;;;;;;5074899;28;20036;-79
2023/09/03 04:43:36;;;;;;;1.42;0.50;;;20.00;56.80;;;;;;5075016;28;20085;-77
2023/09/03 04:46:03;;;;;;;1.65;0.52;;;20.00;56.40;;;;;;5075344;28;20021;-79
2023/09/03 04:48:30;;;;;;;3.53;0.80;;;20.10;56.40;;;;;;5075850;28;20471;-77
2023/09/03 04:51:03;;;;;;;2.75;0.80;;;20.10;56.50;;;;;;5075004;28;20056;-79
2023/09/03 04:53:34;;;;;;;1.23;0.57;;;20.10;56.30;;;;;;5075080;28;20183;-77
2023/09/03 04:56:02;;;;;;;1.83;0.70;;;20.10;55.50;;;;;;5075286;28;20031;-81
2023/09/03 04:58:29;;;;;;;1.73;0.68;;;20.10;55.20;;;;;;5074472;28;20021;-81
2023/09/03 05:01:01;;;;;;;0.60;0.50;;;20.10;55.40;;;;;;5075810;28;20063;-77
2023/09/03 05:03:32;;;;;;;4.13;1.25;;;20.10;55.50;;;;;;5076398;28;20025;-76
2023/09/03 05:05:59;;;;;;;2.63;0.52;;;20.10;55.70;;;;;;5075270;28;20434;-80
2023/09/03 05:08:27;;;;;;;2.67;0.68;;;20.00;55.10;;;;;;5074453;28;20107;-78
2023/09/03 05:10:54;;;;;;;4.32;0.70;;;20.10;55.40;;;;;;5073820;28;20062;-77
2023/09/03 05:13:21;;;;;;;4.25;0.80;;;20.00;55.30;;;;;;5074031;28;20031;-78
2023/09/03 05:15:52;;;;;;;3.78;0.82;;;20.00;55.20;;;;;;5073984;28;20066;-77
2023/09/03 05:18:19;;;;;;;4.18;0.70;;;20.00;55.10;;;;;;5073846;28;20025;-76
2023/09/03 05:20:46;;;;;;;1.35;0.60;;;19.90;55.20;;;;;;5073751;28;20361;-77
2023/09/03 05:23:14;;;;;;;3.88;0.60;;;19.80;55.50;;;;;;5072259;28;20035;-78
2023/09/03 05:25:41;;;;;;;1.67;0.65;;;19.80;55.80;;;;;;5073557;28;20044;-77
2023/09/03 05:28:08;;;;;;;5.40;0.60;;;19.80;56.10;;;;;;5073589;28;20052;-77
2023/09/03 05:30:36;;;;;;;4.50;0.70;;;19.80;56.00;;;;;;5073753;28;20055;-77
2023/09/03 05:33:06;;;;;;;1.75;0.68;;;19.80;56.10;;;;;;5073607;28;20433;-80
2023/09/03 05:35:33;;;;;;;2.17;0.80;;;19.80;55.60;;;;;;5073686;28;20426;-76
2023/09/03 05:38:01;;;;;;;0.70;0.43;;;19.70;55.70;;;;;;5072738;28;20512;-78
2023/09/03 05:40:28;;;;;;;1.33;0.30;;;19.70;56.10;;;;;;5073973;28;20029;-78
2023/09/03 05:42:57;;;;;;;2.65;0.50;;;19.70;56.30;;;;;;5073460;28;20538;-81
2023/09/03 05:45:24;;;;;;;3.45;0.65;;;19.60;56.40;;;;;;5073684;28;20051;-78
2023/09/03 05:47:51;;;;;;;3.30;0.60;;;19.60;56.60;;;;;;5073480;28;20031;-79
2023/09/03 05:50:19;;;;;;;2.10;0.75;;;19.50;56.70;;;;;;5073105;28;20036;-83
2023/09/03 05:52:46;;;;;;;2.92;0.93;;;19.50;56.60;;;;;;5073301;28;20414;-83
2023/09/03 05:55:13;;;;;;;3.30;0.73;;;19.40;56.70;;;;;;5073197;28;20100;-78
2023/09/03 05:57:41;;;;;;;1.73;0.68;;;19.40;57.20;;;;;;5073601;28;20108;-78
2023/09/03 06:00:09;;;;;;;2.78;0.60;;;19.30;57.70;;;;;;5069952;28;20055;-78
2023/09/03 06:02:36;;;;;;;2.85;0.60;;;19.30;57.40;;;;;;5068263;28;20528;-77
2023/09/03 06:05:05;;;;;;;3.67;0.73;;;19.30;57.00;;;;;;5067314;28;20115;-78
2023/09/03 06:07:32;;;;;;;2.92;0.73;;;19.20;57.20;;;;;;5067197;28;20055;-76
2023/09/03 06:10:00;;;;;;;4.10;0.57;;;19.10;57.50;;;;;;5057045;28;20372;-78
2023/09/03 06:12:27;;;;;;;4.38;0.65;;;19.10;57.60;;;;;;5073211;28;20036;-76
2023/09/03 06:14:55;;;;;;;3.72;0.68;;;19.00;57.90;;;;;;5072919;28;20082;-78
2023/09/03 06:17:22;;;;;;;3.00;0.60;;;18.90;58.10;;;;;;5074028;28;20033;-82
2023/09/03 06:19:51;;;;;;;2.67;0.60;;;18.80;58.30;;;;;;5073527;28;20112;-77
2023/09/03 06:22:18;;;;;;;6.95;0.90;;;18.80;58.00;;;;;;5079376;28;20025;-76
2023/09/03 06:24:46;;;;;;;2.92;0.52;;;18.70;58.40;;;;;;5080174;28;20016;-75
2023/09/03 06:27:13;;;;;;;1.13;0.50;;;18.70;58.60;;;;;;5077383;28;20064;-77
2023/09/03 06:29:41;;;;;;;4.60;0.80;;;18.70;58.50;;;;;;5072936;28;20024;-81
2023/09/03 06:32:09;;;;;;;1.33;0.40;;;18.60;58.50;;;;;;5073462;28;20037;-77
2023/09/03 06:34:38;;;;;;;3.05;0.60;;;18.50;58.70;;;;;;5072574;28;20028;-76
2023/09/03 06:37:07;;;;;;;4.10;0.90;;;18.40;58.90;;;;;;5072417;28;20425;-76
2023/09/03 06:39:36;;;;;;;3.30;0.80;;;18.30;58.90;;;;;;5072964;28;20375;-80
2023/09/03 06:42:04;;;;;;;3.38;0.60;;;18.30;58.90;;;;;;5071541;28;20394;-79
2023/09/03 06:44:31;;;;;;;4.07;0.75;;;18.30;59.20;;;;;;5072845;28;20077;-77
2023/09/03 06:46:59;;;;;;;1.55;0.60;;;18.20;59.40;;;;;;5072319;28;20024;-77
2023/09/03 06:49:31;;;;;;;1.90;0.80;;;18.20;59.70;;;;;;5075020;28;20029;-78
2023/09/03 06:51:58;;;;;;;2.88;0.88;;;18.20;59.70;;;;;;5076678;28;20483;-77
2023/09/03 06:54:26;;;;;;;2.38;0.50;;;18.10;59.90;;;;;;5076818;28;20075;-79
2023/09/03 06:56:53;;;;;;;2.38;0.52;;;18.00;60.00;;;;;;5076544;28;20039;-77
2023/09/03 06:59:23;;;;;;;1.95;0.63;;;18.00;60.30;;;;;;5076583;28;20017;-77
2023/09/03 07:01:56;;;;;;;3.80;0.60;;;18.00;60.30;;;;;;5076591;28;20028;-77
2023/09/03 07:04:25;;;;;;;2.55;0.50;;;18.00;60.50;;;;;;5076423;28;20257;-76
2023/09/03 07:06:52;;;;;;;5.82;0.70;;;17.90;60.60;;;;;;5077755;28;20020;-77
2023/09/03 07:09:19;;;;;;;2.95;1.00;;;17.80;60.60;;;;;;5076936;28;20352;-77
2023/09/03 07:11:47;;;;;;;2.15;0.60;;;17.80;60.80;;;;;;5077329;28;20127;-80
2023/09/03 07:14:14;;;;;;;2.00;0.90;;;17.70;60.90;;;;;;5077105;28;20374;-81
2023/09/03 07:16:42;;;;;;;1.13;0.70;;;17.70;61.00;;;;;;5076935;28;20024;-76
2023/09/03 07:19:09;;;;;;;3.40;0.70;;;17.70;61.20;;;;;;5076459;28;20547;-77
2023/09/03 07:21:36;;;;;;;5.40;0.90;;;17.60;61.40;;;;;;5076022;28;20025;-76
2023/09/03 07:24:05;;;;;;;6.15;1.00;;;17.50;61.70;;;;;;5077141;28;20023;-76
2023/09/03 07:26:35;;;;;;;3.50;0.95;;;17.50;61.80;;;;;;5077478;28;20067;-83
2023/09/03 07:29:03;;;;;;;2.70;0.70;;;17.50;61.80;;;;;;5077135;28;20043;-82
2023/09/03 07:31:30;;;;;;;3.55;0.90;;;17.40;62.20;;;;;;5077208;28;20032;-83
2023/09/03 07:33:59;;;;;;;4.20;1.10;;;17.40;62.30;;;;;;5077725;28;20031;-83
2023/09/03 07:36:27;;;;;;;4.13;1.02;;;17.30;62.40;;;;;;5077085;28;20056;-81
2023/09/03 07:38:55;;;;;;;1.27;0.80;;;17.30;62.40;;;;;;5077002;28;20360;-80
2023/09/03 07:41:23;;;;;;;4.05;0.93;;;17.20;62.70;;;;;;5077047;28;20569;-82
2023/09/03 07:43:51;;;;;;;4.28;0.93;;;17.20;62.60;;;;;;5075593;28;20048;-79
2023/09/03 07:46:19;;;;;;;3.35;0.90;;;17.20;63.10;;;;;;5075857;28;20146;-81
2023/09/03 07:48:46;;;;;;;1.92;0.90;;;17.10;63.20;;;;;;5075862;28;20017;-81
2023/09/03 07:51:16;;;;;;;3.08;1.15;;;17.10;63.50;;;;;;5074819;28;20044;-78
2023/09/03 07:53:44;;;;;;;2.30;1.00;;;17.00;63.50;;;;;;5075724;28;20024;-80
2023/09/03 07:56:11;;;;;;;4.60;0.90;;;16.90;63.30;;;;;;5075673;28;20021;-80
2023/09/03 07:58:39;;;;;;;3.05;1.10;;;16.90;63.70;;;;;;5075558;28;20027;-82
2023/09/03 08:01:06;;;;;;;2.88;1.10;;;16.90;63.90;;;;;;5074192;28;20059;-80
2023/09/03 08:03:34;;;;;;;2.22;1.13;;;16.80;63.90;;;;;;5075704;28;20028;-79
2023/09/03 08:06:03;;;;;;;3.72;1.15;;;16.80;64.10;;;;;;5075501;28;20403;-81
2023/09/03 08:08:30;;;;;;;2.35;1.10;;;16.70;64.50;;;;;;5075681;28;20020;-80
2023/09/03 08:10:58;;;;;;;4.18;1.13;;;16.70;64.20;;;;;;5075506;28;20090;-81
2023/09/03 08:13:25;;;;;;;1.45;0.98;;;16.60;64.60;;;;;;5074687;28;20092;-76
2023/09/03 08:15:53;;;;;;;2.67;1.30;;;16.60;65.00;;;;;;5075828;28;20138;-80
2023/09/03 08:18:22;;;;;;;3.65;1.70;;;16.60;64.80;;;;;;5076043;28;20464;-83
2023/09/03 08:20:53;;;;;;;5.38;1.77;;;16.60;65.20;;;;;;5075287;28;20056;-83
2023/09/03 08:23:24;;;;;;;4.05;1.40;;;16.50;65.10;;;;;;5074322;28;20017;-85
2023/09/03 08:25:51;;;;;;;7.05;2.00;;;16.50;65.50;;;;;;5075624;28;20067;-80
2023/09/03 08:28:20;;;;;;;3.75;1.40;;;16.40;65.60;;;;;;5075091;28;20021;-82
2023/09/03 08:30:48;;;;;;;7.80;1.83;;;16.40;65.70;;;;;;5075684;28;20486;-81
2023/09/03 08:33:15;;;;;;;8.38;1.42;;;16.30;66.00;;;;;;5075016;28;20379;-85
2023/09/03 08:35:44;;;;;;;5.47;1.50;;;16.30;65.70;;;;;;5075166;28;20032;-82
2023/09/03 08:38:12;;;;;;;5.30;1.52;;;16.30;66.00;;;;;;5075682;28;20020;-81
2023/09/03 08:40:41;;;;;;;4.18;1.55;;;16.20;66.30;;;;;;5075015;28;20013;-78
2023/09/03 08:43:09;;;;;;;6.85;2.10;;;16.20;66.10;;;;;;5074615;28;20020;-78
2023/09/03 08:45:53;;;;;;;7.95;2.17;;;16.20;66.20;;;;;;5074887;28;20023;-82
2023/09/03 08:48:21;;;;;;;5.68;1.95;;;16.20;66.50;;;;;;5074509;28;20383;-81
2023/09/03 08:50:48;;;;;;;5.18;1.92;;;16.10;66.50;;;;;;5074579;28;20051;-83
2023/09/03 08:53:16;;;;;;;6.25;2.53;;;16.10;67.10;;;;;;5074486;28;20028;-79
2023/09/03 08:55:44;;;;;;;3.58;1.80;;;16.00;67.10;;;;;;5074660;28;20509;-82
2023/09/03 08:58:13;;;;;;;5.60;2.15;;;16.00;67.10;;;;;;5074674;28;20054;-80
2023/09/03 09:00:40;;;;;;;3.10;2.03;;;15.90;67.40;;;;;;5074348;28;20031;-78
2023/09/03 09:03:13;;;;;;;5.82;2.35;;;15.90;67.40;;;;;;5074028;28;20028;-79
2023/09/03 09:05:42;;;;;;;4.50;1.90;;;15.90;67.50;;;;;;5074166;28;20166;-79
2023/09/03 09:08:10;;;;;;;10.88;7.10;;;15.90;67.60;;;;;;5074260;28;20028;-78
2023/09/03 09:10:48;;;;;;;3.03;1.55;;;15.90;67.40;;;;;;5074227;28;20110;-77
2023/09/03 09:13:21;;;;;;;6.78;1.70;;;15.80;67.50;;;;;;5073909;28;20104;-77
2023/09/03 09:15:49;;;;;;;3.55;1.40;;;15.80;67.60;;;;;;5073959;28;20434;-79
2023/09/03 09:18:16;;;;;;;3.42;1.30;;;15.80;67.70;;;;;;5073970;28;20024;-77
2023/09/03 09:20:46;;;;;;;3.15;1.50;;;15.70;67.80;;;;;;5073888;28;20633;-78
2023/09/03 09:23:21;;;;;;;6.28;1.88;;;15.70;68.20;;;;;;5073495;28;20024;-80
2023/09/03 09:25:50;;;;;;;4.78;2.15;;;15.70;68.40;;;;;;5073642;28;20067;-78
2023/09/03 09:28:17;;;;;;;5.40;2.50;;;15.70;68.80;;;;;;5073897;28;20471;-77
2023/09/03 09:30:55;;;;;;;4.97;4.07;;;15.60;69.00;;;;;;5073428;28;20115;-78
2023/09/03 09:33:23;;;;;;;14.43;7.32;;;15.60;69.20;;;;;;5073866;28;20029;-79
2023/09/03 09:35:50;;;;;;;12.75;9.38;;;15.60;69.40;;;;;;5073351;28;20051;-81
2023/09/03 09:38:19;;;;;;;15.75;9.63;;;15.50;69.60;;;;;;5073670;28;20095;-76
2023/09/03 09:40:47;;;;;;;14.10;8.55;;;15.50;69.50;;;;;;5072389;28;20018;-78
2023/09/03 09:43:14;;;;;;;11.85;7.75;;;15.50;69.70;;;;;;5077942;28;20028;-77
2023/09/03 09:45:51;;;;;;;11.63;6.55;;;15.50;69.70;;;;;;5080673;28;20064;-79
2023/09/03 09:48:20;;;;;;;8.27;5.80;;;15.40;70.10;;;;;;5077375;28;20112;-79
2023/09/03 09:50:51;;;;;;;8.52;5.40;;;15.40;69.80;;;;;;5072077;28;20037;-82
2023/09/03 09:53:24;;;;;;;7.00;4.45;;;15.40;69.80;;;;;;5073435;28;20035;-77
2023/09/03 09:56:09;;;;;;;8.25;3.90;;;15.30;70.00;;;;;;5073223;28;20476;-78
2023/09/03 09:58:41;;;;;;;10.93;3.78;;;15.30;69.90;;;;;;5074547;28;20039;-79
2023/09/03 10:01:09;;;;;;;7.38;3.60;;;15.20;70.00;;;;;;5074044;28;20020;-80
2023/09/03 10:03:46;;;;;;;8.55;3.20;;;15.20;70.10;;;;;;5071238;28;20112;-78
2023/09/03 10:06:15;;;;;;;9.60;3.55;;;15.20;70.40;;;;;;5073358;28;20371;-81
2023/09/03 10:08:45;;;;;;;6.20;3.05;;;15.10;70.40;;;;;;5073005;28;20040;-79
2023/09/03 10:11:13;;;;;;;7.35;3.10;;;15.10;70.50;;;;;;5072909;28;20074;-79
2023/09/03 10:13:42;;;;;;;5.25;2.78;;;15.00;70.70;;;;;;5073110;28;20017;-79
2023/09/03 10:16:11;;;;;;;9.10;3.03;;;15.00;70.80;;;;;;5072617;28;20036;-83
2023/09/03 10:18:46;;;;;;;9.80;2.90;;;15.00;70.90;;;;;;5071657;28;20029;-82
2023/09/03 10:21:18;;;;;;;5.55;2.40;;;15.00;71.00;;;;;;5073035;28;20383;-79
2023/09/03 10:23:49;;;;;;;4.15;2.30;;;14.90;71.00;;;;;;5072535;28;20036;-80
2023/09/03 10:26:26;;;;;;;3.08;2.38;;;14.80;71.20;;;;;;5073087;28;20515;-80
2023/09/03 10:29:03;;;;;;;8.32;2.60;;;14.80;71.60;;;;;;5072703;28;20055;-83
2023/09/03 10:31:35;;;;;;;5.95;2.30;;;14.80;71.70;;;;;;5068356;28;20380;-78
2023/09/03 10:34:08;;;;;;;7.70;3.25;;;14.80;71.70;;;;;;5070508;28;20036;-76
2023/09/03 10:36:36;;;;;;;5.85;3.15;;;14.70;72.00;;;;;;5075754;28;20032;-77
2023/09/03 10:39:23;;;;;;;4.82;2.25;;;14.70;72.10;;;;;;5075329;28;20411;-76
2023/09/03 10:42:19;;;;;;;6.00;2.20;;;14.70;72.40;;;;;;5066140;28;20033;-79
2023/09/03 10:44:58;;;;;;;6.50;2.20;;;14.70;73.20;;;;;;5068996;28;20025;-80
2023/09/03 10:47:26;;;;;;;5.18;1.95;;;14.70;72.80;;;;;;5067979;28;20036;-80
2023/09/03 10:49:54;;;;;;;5.30;2.72;;;14.70;72.90;;;;;;5066033;28;20033;-80
2023/09/03 10:52:28;;;;;;;4.60;2.30;;;14.70;73.00;;;;;;5067596;28;20025;-78
2023/09/03 10:55:22;;;;;;;5.88;2.63;;;14.60;73.00;;;;;;5067486;28;20074;-79
2023/09/03 10:58:11;;;;;;;6.32;2.33;;;14.60;73.10;;;;;;5067954;28;20029;-78
2023/09/03 11:00:38;;;;;;;3.38;1.75;;;14.60;73.50;;;;;;5067685;28;20021;-83
2023/09/03 11:03:18;;;;;;;5.53;2.47;;;14.50;73.40;;;;;;5068487;28;20040;-79
2023/09/03 11:06:18;;;;;;;7.70;1.98;;;14.50;73.50;;;;;;5067790;28;20146;-77
2023/09/03 11:09:10;;;;;;;7.03;2.10;;;14.50;73.70;;;;;;5068190;28;20425;-79
2023/09/03 11:11:42;;;;;;;7.28;1.98;;;14.50;73.90;;;;;;5059948;28;20064;-79
2023/09/03 11:14:13;;;;;;;3.65;1.85;;;14.50;73.80;;;;;;5074700;28;20021;-77
2023/09/03 11:16:41;;;;;;;6.72;2.30;;;14.50;73.80;;;;;;5075386;28;20514;-77
2023/09/03 11:19:09;;;;;;;8.65;3.15;;;14.40;73.80;;;;;;5074619;28;20100;-77
2023/09/03 11:21:37;;;;;;;5.55;3.05;;;14.40;73.70;;;;;;5071503;28;20107;-76
2023/09/03 11:24:06;;;;;;;7.88;3.85;;;14.30;74.00;;;;;;5067307;28;20035;-76
2023/09/03 11:26:37;;;;;;;8.38;3.58;;;14.30;74.00;;;;;;5074733;28;20059;-78
2023/09/03 11:29:17;;;;;;;9.93;3.35;;;14.30;74.10;;;;;;5073019;28;20082;-79
2023/09/03 11:31:48;;;;;;;8.25;3.28;;;14.30;74.10;;;;;;5073006;28;20033;-79
2023/09/03 11:34:29;;;;;;;8.68;3.55;;;14.30;74.60;;;;;;5067970;28;20078;-78
2023/09/03 11:36:57;;;;;;;10.02;4.80;;;14.30;74.70;;;;;;5070251;28;20044;-76
2023/09/03 11:39:25;;;;;;;10.88;5.00;;;14.30;74.40;;;;;;5070561;28;20063;-77
2023/09/03 11:41:52;;;;;;;11.32;5.20;;;14.30;74.10;;;;;;5070958;28;20026;-80
2023/09/03 11:44:24;;;;;;;10.75;4.78;;;14.30;74.20;;;;;;5070950;28;20478;-80
2023/09/03 11:47:02;;;;;;;10.02;5.45;;;14.30;74.20;;;;;;5071317;28;20017;-79
2023/09/03 11:49:30;;;;;;;13.55;6.25;;;14.30;74.90;;;;;;5069639;28;20029;-78
2023/09/03 11:52:14;;;;;;;10.77;6.03;;;14.20;74.70;;;;;;5070980;28;20123;-82
2023/09/03 11:54:42;;;;;;;11.18;6.25;;;14.20;74.60;;;;;;5069200;28;20024;-77
2023/09/03 11:57:16;;;;;;;9.10;5.20;;;14.20;75.00;;;;;;5070860;28;20035;-80
2023/09/03 11:59:44;;;;;;;11.43;5.57;;;14.20;75.20;;;;;;5069570;28;20044;-77
2023/09/03 12:02:12;;;;;;;11.60;5.65;;;14.20;75.30;;;;;;5069705;28;20013;-77
2023/09/03 12:04:40;;;;;;;12.18;5.70;;;14.20;75.60;;;;;;5071632;28;20039;-78
2023/09/03 12:07:16;;;;;;;11.15;5.57;;;14.20;75.40;;;;;;5070357;28;20115;-77
2023/09/03 12:09:43;;;;;;;16.65;6.22;;;14.20;75.50;;;;;;5067933;28;20029;-79
2023/09/03 12:12:11;;;;;;;10.25;6.00;;;14.20;75.50;;;;;;5070406;28;20472;-77
2023/09/03 12:14:38;;;;;;;13.18;6.00;;;14.20;75.60;;;;;;5070868;28;20109;-84
2023/09/03 12:17:08;;;;;;;8.27;4.70;;;14.10;75.90;;;;;;5070321;28;20392;-84
2023/09/03 12:19:42;;;;;;;9.00;5.03;;;14.10;75.70;;;;;;5069183;28;20480;-81
2023/09/03 12:22:10;;;;;;;10.18;4.90;;;14.10;75.90;;;;;;5068675;28;20028;-81
2023/09/03 12:24:37;;;;;;;11.45;5.07;;;14.10;76.20;;;;;;5070720;28;20029;-79
2023/09/03 12:27:06;;;;;;;9.48;4.55;;;14.10;76.00;;;;;;5069265;28;20056;-77
2023/09/03 12:29:38;;;;;;;11.57;4.72;;;14.00;75.90;;;;;;5067713;28;20032;-76
2023/09/03 12:32:08;;;;;;;10.63;4.20;;;14.10;76.10;;;;;;5069269;28;20040;-78
2023/09/03 12:34:39;;;;;;;8.93;4.20;;;14.00;76.40;;;;;;5070660;28;20050;-79
2023/09/03 12:37:08;;;;;;;7.05;3.67;;;14.10;76.30;;;;;;5069121;28;20037;-77
2023/09/03 12:39:40;;;;;;;8.05;4.32;;;14.00;76.50;;;;;;5068119;28;20035;-79
2023/09/03 12:42:10;;;;;;;8.68;3.95;;;14.10;76.30;;;;;;5070397;28;20021;-82
2023/09/03 12:44:42;;;;;;;10.05;3.70;;;14.00;76.20;;;;;;5070057;28;20027;-83
2023/09/03 12:47:10;;;;;;;7.30;3.78;;;14.00;76.20;;;;;;5069486;28;20441;-84
2023/09/03 12:49:37;;;;;;;6.43;3.20;;;13.90;76.50;;;;;;5067896;28;20028;-80
2023/09/03 12:52:05;;;;;;;12.00;4.13;;;14.00;76.70;;;;;;5069231;28;20564;-80
2023/09/03 12:54:34;;;;;;;8.93;3.63;;;14.00;76.60;;;;;;5069884;28;20021;-82
2023/09/03 12:57:01;;;;;;;5.65;3.40;;;14.00;76.60;;;;;;5069452;28;20025;-76
2023/09/03 12:59:28;;;;;;;6.72;3.83;;;14.00;76.60;;;;;;5068123;28;20028;-76